EWG25H EHAM-EDDF
Flight info
| Callsign | EWG25H |
|---|---|
| Flight time | N/A |
| Altitude | 33000 |
| Route | EDUPO Z739 MISGO DCT DIXAT DIXAT1A |
| Aircraft | A320/M-SDE3FGHIRWY/LB1 |
Departure
| Time | 2026-05-07 14:46 |
|---|---|
| Airport | Amsterdam Airport Schiphol (EHAM) |
Arrival
| Time | N/A |
|---|---|
| Airport | Frankfurt Main Airport (EDDF) |
| Time | Latitude | Longitude | Altitude | Speed | Heading |
|---|---|---|---|---|---|
| 2026-05-07 14:17 | 52.30537 | 4.76515 | -1 ft | 0 kts | 59° |
| 2026-05-07 14:38 | 52.30534 | 4.76506 | -1 ft | 4 kts | 59° |
| 2026-05-07 14:39 | 52.30521 | 4.76468 | -1 ft | 4 kts | 71° |
| 2026-05-07 14:39 | 52.30520 | 4.76434 | -1 ft | 3 kts | 134° |
| 2026-05-07 14:39 | 52.30521 | 4.76431 | -1 ft | 0 kts | 136° |
| 2026-05-07 14:41 | 52.30519 | 4.76435 | -1 ft | 2 kts | 136° |
| 2026-05-07 14:41 | 52.30486 | 4.76468 | -1 ft | 9 kts | 152° |
| 2026-05-07 14:41 | 52.30413 | 4.76542 | -1 ft | 16 kts | 147° |
| 2026-05-07 14:41 | 52.30362 | 4.76592 | -1 ft | 1 kts | 149° |
| 2026-05-07 14:42 | 52.30342 | 4.76704 | -1 ft | 24 kts | 107° |
| 2026-05-07 14:42 | 52.30371 | 4.76962 | -1 ft | 26 kts | 57° |
| 2026-05-07 14:42 | 52.30476 | 4.77246 | -1 ft | 34 kts | 58° |
| 2026-05-07 14:42 | 52.30623 | 4.77562 | -1 ft | 35 kts | 31° |
| 2026-05-07 14:43 | 52.30855 | 4.77605 | -1 ft | 34 kts | 4° |
| 2026-05-07 14:43 | 52.31097 | 4.77627 | -1 ft | 35 kts | 3° |
| 2026-05-07 14:43 | 52.31346 | 4.77646 | -1 ft | 36 kts | 2° |
| 2026-05-07 14:43 | 52.31540 | 4.77458 | -1 ft | 34 kts | 301° |
| 2026-05-07 14:44 | 52.31566 | 4.77087 | -1 ft | 33 kts | 267° |
| 2026-05-07 14:44 | 52.31554 | 4.76696 | -1 ft | 36 kts | 267° |
| 2026-05-07 14:44 | 52.31540 | 4.76270 | -1 ft | 38 kts | 266° |
| 2026-05-07 14:44 | 52.31557 | 4.76009 | -1 ft | 17 kts | 327° |
| 2026-05-07 14:45 | 52.31671 | 4.76135 | 0 ft | 40 kts | 60° |
| 2026-05-07 14:45 | 52.31740 | 4.76786 | -2 ft | 82 kts | 87° |
| 2026-05-07 14:45 | 52.31782 | 4.78079 | -2 ft | 148 kts | 86° |
| 2026-05-07 14:45 | 52.31841 | 4.79979 | 436 ft | 172 kts | 85° |
| 2026-05-07 14:46 | 52.31894 | 4.81289 | 1044 ft | 176 kts | 82° |
| 2026-05-07 14:46 | 52.31994 | 4.83321 | 1712 ft | 186 kts | 85° |
| 2026-05-07 14:46 | 52.31867 | 4.85553 | 2022 ft | 212 kts | 102° |
| 2026-05-07 14:46 | 52.31483 | 4.88016 | 2413 ft | 237 kts | 103° |
| 2026-05-07 14:47 | 52.31016 | 4.90709 | 2986 ft | 252 kts | 106° |
| 2026-05-07 14:47 | 52.30480 | 4.93472 | 3838 ft | 257 kts | 107° |
| 2026-05-07 14:47 | 52.29925 | 4.96278 | 4697 ft | 262 kts | 108° |
| 2026-05-07 14:47 | 52.29369 | 4.99122 | 5566 ft | 265 kts | 108° |
| 2026-05-07 14:48 | 52.28814 | 5.02009 | 6451 ft | 268 kts | 108° |
| 2026-05-07 14:48 | 52.28261 | 5.04931 | 7247 ft | 272 kts | 107° |
| 2026-05-07 14:48 | 52.27705 | 5.07911 | 8014 ft | 277 kts | 108° |
| 2026-05-07 14:48 | 52.27144 | 5.10959 | 8786 ft | 282 kts | 108° |
| 2026-05-07 14:49 | 52.26574 | 5.14055 | 9550 ft | 287 kts | 108° |
| 2026-05-07 14:49 | 52.25992 | 5.17207 | 10273 ft | 293 kts | 108° |
| 2026-05-07 14:49 | 52.25375 | 5.20514 | 10527 ft | 316 kts | 108° |
| 2026-05-07 14:49 | 52.24680 | 5.23996 | 10717 ft | 339 kts | 112° |
| 2026-05-07 14:50 | 52.23577 | 5.27587 | 10890 ft | 358 kts | 123° |
| 2026-05-07 14:50 | 52.22155 | 5.30905 | 11414 ft | 365 kts | 126° |
| 2026-05-07 14:50 | 52.20661 | 5.34327 | 12082 ft | 369 kts | 126° |
| 2026-05-07 14:50 | 52.19167 | 5.37766 | 12746 ft | 373 kts | 126° |
| 2026-05-07 14:51 | 52.17661 | 5.41234 | 13409 ft | 377 kts | 126° |
| 2026-05-07 14:51 | 52.16138 | 5.44728 | 14042 ft | 380 kts | 126° |
| 2026-05-07 14:51 | 52.14616 | 5.48211 | 14630 ft | 384 kts | 126° |
| 2026-05-07 14:51 | 52.13062 | 5.51760 | 15186 ft | 387 kts | 126° |
| 2026-05-07 14:52 | 52.11492 | 5.55347 | 15749 ft | 390 kts | 126° |
| 2026-05-07 14:52 | 52.09916 | 5.58953 | 16307 ft | 393 kts | 126° |
| 2026-05-07 14:52 | 52.08324 | 5.62588 | 16840 ft | 396 kts | 126° |
| 2026-05-07 14:52 | 52.06714 | 5.66259 | 17358 ft | 399 kts | 126° |
| 2026-05-07 14:53 | 52.04963 | 5.69792 | 17876 ft | 402 kts | 131° |
| 2026-05-07 14:53 | 52.03128 | 5.73236 | 18404 ft | 405 kts | 131° |
| 2026-05-07 14:53 | 52.01267 | 5.76704 | 18885 ft | 408 kts | 132° |
| 2026-05-07 14:53 | 51.99391 | 5.80188 | 19337 ft | 411 kts | 132° |
| 2026-05-07 14:54 | 51.97505 | 5.83684 | 19778 ft | 410 kts | 132° |
| 2026-05-07 14:54 | 51.95654 | 5.87049 | 19904 ft | 390 kts | 133° |
| 2026-05-07 14:54 | 51.93878 | 5.90237 | 20029 ft | 371 kts | 133° |
| 2026-05-07 14:54 | 51.92207 | 5.93261 | 20356 ft | 348 kts | 132° |
| 2026-05-07 14:55 | 51.90675 | 5.96115 | 21099 ft | 324 kts | 132° |
| 2026-05-07 14:55 | 51.89233 | 5.98832 | 21530 ft | 314 kts | 132° |
| 2026-05-07 14:55 | 51.87815 | 6.01501 | 21678 ft | 312 kts | 132° |
| 2026-05-07 14:55 | 51.86396 | 6.04153 | 21815 ft | 310 kts | 133° |
| 2026-05-07 14:56 | 51.84982 | 6.06781 | 21934 ft | 309 kts | 133° |
| 2026-05-07 14:56 | 51.83572 | 6.09389 | 22073 ft | 307 kts | 133° |
| 2026-05-07 14:56 | 51.82152 | 6.11993 | 22059 ft | 310 kts | 133° |
| 2026-05-07 14:56 | 51.80950 | 6.14844 | 22061 ft | 313 kts | 113° |
| 2026-05-07 14:57 | 51.80504 | 6.18329 | 22061 ft | 317 kts | 89° |
| 2026-05-07 14:57 | 51.80943 | 6.21812 | 22062 ft | 319 kts | 65° |
| 2026-05-07 14:57 | 51.82188 | 6.24756 | 22059 ft | 319 kts | 41° |
| 2026-05-07 14:57 | 51.84041 | 6.26689 | 22059 ft | 319 kts | 19° |
| 2026-05-07 14:58 | 51.86166 | 6.27800 | 22056 ft | 323 kts | 14° |
| 2026-05-07 14:58 | 51.88338 | 6.28780 | 22061 ft | 326 kts | 14° |
| 2026-05-07 14:58 | 51.90531 | 6.29745 | 22055 ft | 328 kts | 13° |